Time;durP1;ratioP1;P1;durP2;ratioP2;P2;SDS_P1;SDS_P2;PMS_P1;PMS_P2;Temp;Humidity;BMP_temperature;BMP_pressure;BME280_temperature;BME280_humidity;BME280_pressure;Samples;Min_cycle;Max_cycle;Signal;HPM_P1;HPM_P2
2022/08/21 00:46:38;;;;;;;5.95;3.63;;;14.50;99.90;;;;;;5040296;28;20088;-60
2022/08/21 00:49:05;;;;;;;6.25;3.92;;;14.30;99.90;;;;;;5042985;28;20137;-60
2022/08/21 00:51:42;;;;;;;7.05;3.75;;;14.30;99.90;;;;;;5039758;28;20037;-60
2022/08/21 00:54:09;;;;;;;5.85;4.03;;;14.30;99.90;;;;;;5046083;28;20087;-60
2022/08/21 00:56:36;;;;;;;9.30;4.45;;;14.20;99.90;;;;;;5043382;28;20037;-60
2022/08/21 00:59:02;;;;;;;8.73;3.40;;;14.20;99.90;;;;;;5050119;28;20091;-60
2022/08/21 01:01:28;;;;;;;9.23;3.63;;;14.10;99.90;;;;;;5039579;28;20465;-60
2022/08/21 01:03:54;;;;;;;7.43;4.13;;;14.10;99.90;;;;;;5036864;28;20123;-60
2022/08/21 01:06:20;;;;;;;8.07;4.43;;;14.10;99.90;;;;;;5035491;28;20531;-59
2022/08/21 01:08:46;;;;;;;5.15;3.78;;;14.00;99.90;;;;;;5038661;28;20092;-60
2022/08/21 01:11:12;;;;;;;5.63;3.58;;;14.00;99.90;;;;;;5040238;28;20082;-60
2022/08/21 01:13:44;;;;;;;9.20;4.03;;;13.90;99.90;;;;;;5038107;28;20750;-60
2022/08/21 01:16:10;;;;;;;8.50;4.03;;;13.90;99.90;;;;;;5040236;28;20071;-60
2022/08/21 01:18:36;;;;;;;6.30;3.58;;;13.90;99.90;;;;;;5025414;28;20051;-60
2022/08/21 01:21:14;;;;;;;8.75;4.20;;;13.90;99.90;;;;;;5035175;28;20033;-60
2022/08/21 01:23:43;;;;;;;6.10;3.97;;;13.80;99.90;;;;;;5032205;28;20381;-59
2022/08/21 01:26:09;;;;;;;6.70;3.97;;;13.90;99.90;;;;;;5032581;28;20077;-60
2022/08/21 01:28:40;;;;;;;8.85;3.83;;;13.90;99.90;;;;;;5017479;28;20033;-60
2022/08/21 01:31:07;;;;;;;7.40;3.67;;;13.90;99.90;;;;;;5036303;28;20488;-60
2022/08/21 01:33:33;;;;;;;9.77;4.00;;;13.90;99.90;;;;;;5042820;28;20037;-60
2022/08/21 01:35:59;;;;;;;8.30;3.67;;;13.80;99.90;;;;;;5046878;28;20033;-59
2022/08/21 01:38:25;;;;;;;8.13;3.60;;;13.70;99.90;;;;;;5036096;28;21661;-60
2022/08/21 01:40:51;;;;;;;6.68;3.90;;;13.70;99.90;;;;;;5050478;28;20045;-60
2022/08/21 01:43:16;;;;;;;8.40;3.83;;;13.60;99.90;;;;;;5044620;28;20033;-59
2022/08/21 01:45:42;;;;;;;4.70;3.88;;;13.60;99.90;;;;;;5047004;28;20111;-60
2022/08/21 01:48:08;;;;;;;5.45;3.60;;;13.60;99.90;;;;;;5057151;28;20084;-59
2022/08/21 01:50:34;;;;;;;9.48;3.50;;;13.50;99.90;;;;;;5054395;28;20554;-60
2022/08/21 01:52:59;;;;;;;7.55;3.97;;;13.50;99.90;;;;;;5043932;28;20078;-59
2022/08/21 01:55:25;;;;;;;5.88;3.90;;;13.40;99.90;;;;;;5055591;28;20028;-60
2022/08/21 01:57:51;;;;;;;6.78;3.72;;;13.40;99.90;;;;;;5055343;28;20567;-60
2022/08/21 02:00:22;;;;;;;7.30;3.90;;;13.30;99.90;;;;;;5053426;28;20064;-60
2022/08/21 02:02:49;;;;;;;5.85;4.00;;;13.40;99.90;;;;;;5062493;28;20047;-60
2022/08/21 02:05:15;;;;;;;6.35;3.95;;;13.40;99.90;;;;;;5056192;28;20593;-59
2022/08/21 02:07:44;;;;;;;9.30;3.72;;;13.40;99.90;;;;;;5069220;28;20069;-58
2022/08/21 02:10:12;;;;;;;7.38;3.80;;;13.40;99.90;;;;;;5064719;28;20509;-59
2022/08/21 02:12:37;;;;;;;5.65;3.60;;;13.30;99.90;;;;;;5058864;28;20082;-59
2022/08/21 02:15:08;;;;;;;5.60;3.50;;;13.20;99.90;;;;;;5068603;28;20488;-59
2022/08/21 02:17:48;;;;;;;5.68;3.17;;;13.20;99.90;;;;;;5062935;28;20041;-59
2022/08/21 02:20:24;;;;;;;4.57;3.70;;;13.10;99.90;;;;;;5059599;28;20048;-60
2022/08/21 02:22:51;;;;;;;6.32;4.18;;;13.00;99.90;;;;;;5062243;28;20072;-59
2022/08/21 02:25:19;;;;;;;6.07;4.22;;;13.00;99.90;;;;;;5060462;28;20469;-59
2022/08/21 02:27:47;;;;;;;5.22;3.78;;;12.90;99.90;;;;;;5056750;28;20127;-59
2022/08/21 02:30:27;;;;;;;7.57;4.22;;;12.90;99.90;;;;;;5041409;28;20080;-59
2022/08/21 02:32:52;;;;;;;8.20;4.93;;;12.90;99.90;;;;;;5056927;28;20071;-60
2022/08/21 02:35:19;;;;;;;7.00;4.82;;;12.80;99.90;;;;;;5059933;28;20041;-59
2022/08/21 02:38:00;;;;;;;12.75;5.55;;;12.80;99.90;;;;;;5037948;28;20056;-59
2022/08/21 02:40:32;;;;;;;10.30;4.38;;;12.80;99.90;;;;;;5065846;28;20036;-60
2022/08/21 02:42:59;;;;;;;9.88;5.20;;;12.80;99.90;;;;;;5057312;28;20036;-59
2022/08/21 02:45:25;;;;;;;8.45;5.20;;;12.80;99.90;;;;;;5059084;28;20505;-59
2022/08/21 02:47:54;;;;;;;7.60;5.22;;;12.70;99.90;;;;;;5055095;28;20045;-59
2022/08/21 02:50:32;;;;;;;5.40;3.70;;;12.70;99.90;;;;;;5063784;28;20037;-59
2022/08/21 02:52:58;;;;;;;7.28;4.88;;;12.70;99.90;;;;;;5055931;28;20037;-60
2022/08/21 02:55:27;;;;;;;8.75;5.68;;;12.70;99.90;;;;;;5065712;28;20076;-59
2022/08/21 02:57:55;;;;;;;7.15;5.00;;;12.70;99.90;;;;;;5067177;28;20145;-59
2022/08/21 03:00:22;;;;;;;9.25;5.93;;;12.60;99.90;;;;;;5050407;28;20052;-59
2022/08/21 03:02:48;;;;;;;10.00;5.80;;;12.60;99.90;;;;;;5064873;28;20104;-59
2022/08/21 03:05:14;;;;;;;10.80;6.25;;;12.60;99.90;;;;;;5055627;28;20091;-59
2022/08/21 03:07:41;;;;;;;12.73;6.55;;;12.60;99.90;;;;;;5063228;28;20045;-59
2022/08/21 03:10:08;;;;;;;8.32;6.07;;;12.50;99.90;;;;;;5059515;28;20036;-59
2022/08/21 03:12:35;;;;;;;6.65;5.35;;;12.50;99.90;;;;;;5070965;28;21153;-59
2022/08/21 03:15:05;;;;;;;8.13;4.78;;;12.50;99.90;;;;;;5066456;28;20090;-59
2022/08/21 03:17:30;;;;;;;6.88;3.60;;;12.50;99.90;;;;;;5069067;28;20036;-59
2022/08/21 03:19:56;;;;;;;5.13;3.47;;;12.40;99.90;;;;;;5066722;28;20058;-59
2022/08/21 03:22:22;;;;;;;5.32;4.05;;;12.40;99.90;;;;;;5070513;28;20090;-59
2022/08/21 03:24:47;;;;;;;7.35;4.50;;;12.40;99.90;;;;;;5057499;28;20484;-59
2022/08/21 03:27:13;;;;;;;8.70;5.32;;;12.30;99.90;;;;;;5061950;28;20102;-59
2022/08/21 03:29:40;;;;;;;8.93;6.55;;;12.30;99.90;;;;;;5057045;28;20091;-59
2022/08/21 03:32:09;;;;;;;10.73;7.10;;;12.20;99.90;;;;;;5069126;28;20032;-59
2022/08/21 03:34:36;;;;;;;6.93;5.55;;;12.20;99.90;;;;;;5057508;28;20036;-60
2022/08/21 03:37:02;;;;;;;7.20;4.72;;;12.20;99.90;;;;;;5062695;28;20041;-59
2022/08/21 03:39:28;;;;;;;3.65;3.00;;;12.30;99.90;;;;;;5055138;28;20520;-59
2022/08/21 03:41:54;;;;;;;3.88;2.67;;;12.20;99.90;;;;;;5057895;28;20128;-59
2022/08/21 03:44:19;;;;;;;4.90;2.58;;;12.30;99.90;;;;;;5058438;28;20045;-59
2022/08/21 03:46:45;;;;;;;5.53;3.85;;;12.20;99.90;;;;;;5059779;28;20049;-59
2022/08/21 03:49:10;;;;;;;6.80;4.97;;;12.20;99.90;;;;;;5070754;28;20507;-59
2022/08/21 03:51:36;;;;;;;9.20;5.28;;;12.20;99.90;;;;;;5053146;28;20100;-60
2022/08/21 03:54:03;;;;;;;11.68;6.38;;;12.10;99.90;;;;;;5057912;28;20067;-59
2022/08/21 03:56:28;;;;;;;8.55;6.45;;;12.10;99.90;;;;;;5057847;28;20036;-59
2022/08/21 03:58:54;;;;;;;9.48;6.47;;;12.10;99.90;;;;;;5055336;28;20396;-59
2022/08/21 04:01:20;;;;;;;9.60;6.65;;;12.00;99.90;;;;;;5071115;28;20059;-59
2022/08/21 04:03:45;;;;;;;10.80;7.53;;;12.10;99.90;;;;;;5046923;28;20119;-59
2022/08/21 04:06:11;;;;;;;10.95;6.60;;;12.00;99.90;;;;;;5058409;28;20120;-59
2022/08/21 04:08:36;;;;;;;10.93;7.20;;;12.10;99.90;;;;;;5067149;28;20052;-58
2022/08/21 04:11:02;;;;;;;11.40;7.80;;;12.00;99.90;;;;;;5072069;28;20029;-59
2022/08/21 04:13:27;;;;;;;15.02;8.98;;;12.10;99.90;;;;;;5063480;28;20158;-59
2022/08/21 04:15:54;;;;;;;11.88;8.55;;;12.20;99.90;;;;;;5057250;28;20427;-59
2022/08/21 04:18:20;;;;;;;13.43;8.95;;;12.10;99.90;;;;;;5070681;28;20059;-59
2022/08/21 04:20:49;;;;;;;16.08;9.63;;;12.20;99.90;;;;;;5056820;28;20032;-59
2022/08/21 04:23:15;;;;;;;12.93;8.95;;;12.20;99.90;;;;;;5055699;28;20098;-59
2022/08/21 04:25:41;;;;;;;15.90;9.18;;;12.20;99.90;;;;;;5067893;28;20123;-59
2022/08/21 04:28:06;;;;;;;16.60;9.50;;;12.30;99.90;;;;;;5070891;28;20048;-59
2022/08/21 04:30:32;;;;;;;15.65;9.55;;;12.30;99.90;;;;;;5057548;28;20033;-59
2022/08/21 04:32:58;;;;;;;15.63;10.25;;;12.30;99.90;;;;;;5063379;28;20032;-60
2022/08/21 04:35:26;;;;;;;15.35;11.18;;;12.40;99.90;;;;;;5057843;28;20041;-59
2022/08/21 04:37:52;;;;;;;15.43;10.70;;;12.50;99.90;;;;;;5062992;28;20039;-60
2022/08/21 04:40:20;;;;;;;17.75;10.43;;;12.50;99.90;;;;;;5054527;28;20037;-59
2022/08/21 04:42:52;;;;;;;21.55;11.18;;;12.50;99.90;;;;;;5071030;28;20488;-59
2022/08/21 04:45:33;;;;;;;17.75;10.65;;;12.60;99.90;;;;;;5053126;28;20510;-59
2022/08/21 04:48:01;;;;;;;18.13;11.55;;;12.60;99.90;;;;;;5063959;28;20053;-59
2022/08/21 04:50:39;;;;;;;19.23;12.60;;;12.70;99.90;;;;;;5057549;28;20025;-60
2022/08/21 04:53:11;;;;;;;20.50;11.93;;;12.90;99.90;;;;;;5062743;28;20036;-59
2022/08/21 04:55:38;;;;;;;16.27;11.38;;;13.00;99.90;;;;;;5041785;28;20051;-60
2022/08/21 04:58:06;;;;;;;21.33;11.50;;;13.00;99.90;;;;;;5055458;28;20044;-59
2022/08/21 05:00:32;;;;;;;17.00;10.90;;;13.10;99.90;;;;;;5053612;28;20048;-60
2022/08/21 05:02:59;;;;;;;19.83;11.57;;;13.20;99.90;;;;;;5046009;28;20055;-60
2022/08/21 05:05:27;;;;;;;21.38;12.00;;;13.20;99.90;;;;;;5053010;28;20095;-59
2022/08/21 05:07:53;;;;;;;18.25;11.00;;;13.30;99.90;;;;;;5056386;28;20039;-59
2022/08/21 05:10:19;;;;;;;23.17;11.60;;;13.40;99.90;;;;;;5058330;28;20127;-60
2022/08/21 05:12:45;;;;;;;14.18;10.52;;;13.40;99.90;;;;;;5051213;28;20445;-60
2022/08/21 05:15:14;;;;;;;19.08;11.88;;;13.50;99.90;;;;;;5069321;28;20039;-60
2022/08/21 05:17:41;;;;;;;16.45;10.88;;;13.50;99.90;;;;;;5065253;28;20037;-59
2022/08/21 05:20:08;;;;;;;17.17;11.07;;;13.50;99.90;;;;;;5059797;28;20112;-60
2022/08/21 05:22:33;;;;;;;17.52;11.38;;;13.60;99.90;;;;;;5053250;28;20043;-60
2022/08/21 05:24:59;;;;;;;17.73;9.80;;;13.60;99.90;;;;;;5061541;28;20124;-60
2022/08/21 05:27:24;;;;;;;15.80;9.70;;;13.80;99.90;;;;;;5069295;28;20045;-60
2022/08/21 05:29:50;;;;;;;17.52;10.27;;;13.90;99.90;;;;;;5061669;28;20448;-60
2022/08/21 05:32:15;;;;;;;17.90;9.93;;;13.90;99.90;;;;;;5054686;28;20033;-60
2022/08/21 05:34:41;;;;;;;17.58;9.85;;;14.00;99.90;;;;;;5065328;28;20427;-60
2022/08/21 05:37:09;;;;;;;16.70;9.75;;;14.00;99.90;;;;;;5063404;28;20033;-60
2022/08/21 05:39:35;;;;;;;15.02;9.43;;;14.20;99.90;;;;;;5060738;28;20124;-60
2022/08/21 05:42:00;;;;;;;16.50;10.20;;;14.20;99.90;;;;;;5069160;28;20119;-60
2022/08/21 05:44:26;;;;;;;15.50;9.02;;;14.30;99.90;;;;;;5038665;28;20040;-60
2022/08/21 05:46:51;;;;;;;15.10;9.48;;;14.40;99.90;;;;;;5056669;28;20052;-60
2022/08/21 05:49:17;;;;;;;12.25;8.70;;;14.50;99.90;;;;;;5065374;28;20041;-60
2022/08/21 05:51:42;;;;;;;12.55;8.63;;;14.50;99.90;;;;;;5068587;28;20039;-60
2022/08/21 05:54:08;;;;;;;16.35;9.18;;;14.60;99.90;;;;;;5061930;28;20047;-60
2022/08/21 05:56:34;;;;;;;14.23;8.70;;;14.70;99.90;;;;;;5055535;28;20037;-60
2022/08/21 05:59:00;;;;;;;14.20;8.02;;;14.80;99.90;;;;;;5067486;28;20478;-61
2022/08/21 06:01:26;;;;;;;14.40;9.23;;;14.90;99.90;;;;;;5058217;28;20179;-60
2022/08/21 06:03:52;;;;;;;14.48;7.85;;;15.00;99.90;;;;;;5061521;28;20123;-61
2022/08/21 06:06:17;;;;;;;12.00;8.48;;;15.10;99.90;;;;;;5066711;28;20115;-60
2022/08/21 06:08:43;;;;;;;14.00;8.10;;;15.20;99.90;;;;;;5070306;28;20133;-61
2022/08/21 06:11:09;;;;;;;13.00;7.57;;;15.30;99.90;;;;;;5062022;28;20036;-61
2022/08/21 06:13:35;;;;;;;16.30;8.70;;;15.40;99.90;;;;;;5056910;28;20060;-61
2022/08/21 06:16:08;;;;;;;15.00;7.68;;;15.60;99.90;;;;;;5051472;28;20423;-61
2022/08/21 06:18:35;;;;;;;12.75;7.88;;;15.70;99.90;;;;;;5058837;28;20040;-61
2022/08/21 06:21:01;;;;;;;13.40;7.45;;;16.00;99.90;;;;;;5063726;28;20037;-61
2022/08/21 06:23:27;;;;;;;12.90;6.70;;;16.10;99.90;;;;;;5062736;28;20574;-61
2022/08/21 06:25:52;;;;;;;14.35;6.70;;;16.30;99.90;;;;;;5068750;28;20049;-60
2022/08/21 06:28:18;;;;;;;13.98;7.53;;;16.50;99.90;;;;;;5060286;28;20044;-62
2022/08/21 06:30:43;;;;;;;12.05;6.40;;;16.70;99.90;;;;;;5060812;28;20036;-61
2022/08/21 06:33:09;;;;;;;10.05;6.13;;;16.90;99.90;;;;;;5058833;28;20033;-61
2022/08/21 06:35:35;;;;;;;11.68;5.75;;;17.20;99.90;;;;;;5066662;28;20039;-61
2022/08/21 06:38:01;;;;;;;7.65;5.28;;;17.40;99.90;;;;;;5073687;28;20040;-61
2022/08/21 06:40:28;;;;;;;10.85;5.63;;;17.60;99.90;;;;;;5039505;28;20090;-61
2022/08/21 06:42:53;;;;;;;11.50;5.75;;;17.80;99.90;;;;;;5055869;28;20101;-61
2022/08/21 06:45:20;;;;;;;9.85;4.55;;;18.00;99.90;;;;;;5049677;28;20060;-61
2022/08/21 06:47:46;;;;;;;12.02;5.22;;;18.30;99.90;;;;;;5072261;28;20047;-61
2022/08/21 06:50:12;;;;;;;8.05;4.40;;;18.50;99.90;;;;;;5071059;28;20396;-61
2022/08/21 06:52:38;;;;;;;10.20;4.55;;;18.70;99.90;;;;;;5068805;28;20036;-62
2022/08/21 06:55:10;;;;;;;16.95;4.72;;;18.90;99.90;;;;;;5069807;28;20036;-62
2022/08/21 06:57:35;;;;;;;10.43;4.35;;;19.00;99.90;;;;;;5069707;28;20119;-62
2022/08/21 07:00:06;;;;;;;6.07;4.32;;;19.30;99.90;;;;;;5071824;28;20143;-61
2022/08/21 07:02:33;;;;;;;7.90;4.20;;;19.40;99.90;;;;;;5070297;28;20155;-62
2022/08/21 07:04:59;;;;;;;8.45;3.97;;;19.60;99.90;;;;;;5066868;28;20127;-62
2022/08/21 07:07:24;;;;;;;8.60;3.60;;;19.90;99.90;;;;;;5067660;28;20123;-62
2022/08/21 07:09:50;;;;;;;10.10;4.00;;;20.10;99.90;;;;;;5067214;28;20068;-62
2022/08/21 07:12:15;;;;;;;7.47;4.03;;;20.30;99.90;;;;;;5067660;28;20106;-62
2022/08/21 07:14:42;;;;;;;9.27;4.35;;;20.50;99.90;;;;;;5064963;28;20381;-63
2022/08/21 07:17:07;;;;;;;8.85;3.17;;;20.50;99.90;;;;;;5073057;28;20060;-62
2022/08/21 07:19:33;;;;;;;8.02;3.50;;;20.70;99.90;;;;;;5061833;28;20072;-62
2022/08/21 07:22:01;;;;;;;7.18;3.28;;;20.70;99.90;;;;;;5038297;28;20395;-62
2022/08/21 07:24:26;;;;;;;7.43;3.42;;;21.00;98.80;;;;;;5058716;28;20044;-62
2022/08/21 07:26:52;;;;;;;9.38;3.42;;;21.10;98.90;;;;;;5069520;28;20078;-62
2022/08/21 07:29:18;;;;;;;10.07;3.53;;;21.30;97.90;;;;;;5065613;28;20037;-62
2022/08/21 07:31:44;;;;;;;7.07;3.20;;;21.40;98.70;;;;;;5073732;28;20040;-62
2022/08/21 07:34:10;;;;;;;8.32;2.90;;;21.50;97.70;;;;;;5071514;28;20044;-62
2022/08/21 07:36:35;;;;;;;8.48;3.15;;;21.60;97.00;;;;;;5069959;28;20075;-62
2022/08/21 07:39:01;;;;;;;6.75;2.95;;;21.80;96.30;;;;;;5034502;28;20037;-62
2022/08/21 07:41:29;;;;;;;5.88;2.50;;;22.00;95.50;;;;;;5035652;28;20681;-63
2022/08/21 07:43:57;;;;;;;9.50;2.80;;;21.90;93.90;;;;;;5058991;28;20412;-63
2022/08/21 07:46:23;;;;;;;6.22;2.50;;;22.10;92.70;;;;;;5073877;28;20159;-62
2022/08/21 07:48:49;;;;;;;9.85;3.00;;;22.30;93.40;;;;;;5062619;28;20044;-62
2022/08/21 07:51:16;;;;;;;6.70;2.20;;;22.30;93.50;;;;;;5059725;28;20044;-62
2022/08/21 07:53:42;;;;;;;7.03;2.17;;;22.70;93.20;;;;;;5062119;28;20032;-63
2022/08/21 07:56:10;;;;;;;7.78;3.05;;;22.80;93.00;;;;;;5074273;28;20055;-63
2022/08/21 07:58:36;;;;;;;8.95;3.03;;;23.10;91.90;;;;;;5071268;28;20415;-63
2022/08/21 08:01:02;;;;;;;11.25;2.67;;;23.10;91.60;;;;;;5063174;28;20041;-63
2022/08/21 08:03:27;;;;;;;5.07;2.45;;;23.20;91.20;;;;;;5043897;28;20040;-63
2022/08/21 08:05:53;;;;;;;7.38;2.70;;;23.10;90.50;;;;;;5069431;28;20072;-63
2022/08/21 08:08:19;;;;;;;8.07;2.80;;;23.10;87.10;;;;;;5053459;28;20492;-64
2022/08/21 08:10:45;;;;;;;8.25;3.03;;;23.10;89.00;;;;;;5071833;28;20491;-64
2022/08/21 08:13:11;;;;;;;11.60;2.88;;;23.10;86.40;;;;;;5070612;28;20036;-63
2022/08/21 08:15:37;;;;;;;7.40;2.50;;;23.40;87.10;;;;;;5067518;28;20491;-64
2022/08/21 08:18:02;;;;;;;7.18;2.40;;;23.50;85.10;;;;;;5065503;28;20423;-64
2022/08/21 08:20:29;;;;;;;9.23;2.95;;;23.60;84.20;;;;;;5054391;28;20576;-63
2022/08/21 08:22:55;;;;;;;8.15;2.63;;;23.70;83.10;;;;;;5054752;28;20116;-63
2022/08/21 08:25:22;;;;;;;7.57;2.55;;;24.00;81.60;;;;;;5056823;28;20047;-63
2022/08/21 08:27:48;;;;;;;7.00;2.47;;;24.30;80.20;;;;;;5053658;28;20120;-64
2022/08/21 08:30:16;;;;;;;8.52;2.40;;;24.30;78.70;;;;;;5049873;28;20124;-63
2022/08/21 08:32:42;;;;;;;10.23;2.63;;;24.30;79.20;;;;;;5057462;28;20526;-63
2022/08/21 08:35:08;;;;;;;8.85;1.95;;;24.40;79.60;;;;;;5059163;28;20044;-63
2022/08/21 08:37:37;;;;;;;7.75;2.33;;;24.30;79.30;;;;;;5052730;28;20041;-64
2022/08/21 08:40:04;;;;;;;7.00;2.20;;;24.40;77.60;;;;;;5055652;28;20040;-63
2022/08/21 08:42:33;;;;;;;6.55;1.90;;;24.80;75.00;;;;;;5052104;28;20136;-63
2022/08/21 08:45:05;;;;;;;11.07;2.60;;;25.40;69.90;;;;;;5055235;28;20131;-63
2022/08/21 08:47:34;;;;;;;8.25;2.13;;;26.00;68.10;;;;;;5062143;28;20461;-63
2022/08/21 08:50:11;;;;;;;8.55;2.30;;;26.00;66.20;;;;;;5055798;28;20049;-64
2022/08/21 08:52:48;;;;;;;4.90;2.35;;;25.80;63.40;;;;;;5055304;28;20115;-64
2022/08/21 08:55:18;;;;;;;6.28;2.35;;;25.90;61.70;;;;;;5040405;28;20484;-64
2022/08/21 08:57:46;;;;;;;4.25;1.90;;;26.20;62.10;;;;;;5048605;28;20090;-63
2022/08/21 09:00:13;;;;;;;5.90;1.95;;;26.40;62.40;;;;;;5046219;28;20515;-63
2022/08/21 09:02:40;;;;;;;4.40;2.03;;;26.40;62.60;;;;;;5053368;28;20047;-64
2022/08/21 09:05:09;;;;;;;5.43;2.20;;;26.50;60.10;;;;;;5049635;28;20493;-64
2022/08/21 09:07:52;;;;;;;7.75;2.28;;;27.10;60.60;;;;;;5050612;28;20079;-64
2022/08/21 09:10:22;;;;;;;8.60;2.10;;;27.70;57.40;;;;;;5034722;28;20045;-63
2022/08/21 09:13:06;;;;;;;9.05;2.28;;;28.20;58.80;;;;;;5064925;28;20040;-64
2022/08/21 09:15:38;;;;;;;8.07;2.50;;;28.20;54.40;;;;;;5052111;28;20480;-63
2022/08/21 09:18:31;;;;;;;5.43;2.10;;;28.30;56.10;;;;;;5051382;28;20051;-64
2022/08/21 09:21:19;;;;;;;6.80;2.42;;;28.20;53.40;;;;;;5032367;28;20056;-63
2022/08/21 09:24:20;;;;;;;8.13;2.30;;;27.70;55.00;;;;;;5051531;28;20136;-64
2022/08/21 09:26:57;;;;;;;7.45;1.98;;;27.60;55.00;;;;;;5051449;28;20411;-63
2022/08/21 09:29:28;;;;;;;6.55;2.80;;;27.00;54.90;;;;;;5061617;28;20052;-63
2022/08/21 09:31:53;;;;;;;5.63;2.38;;;26.40;58.50;;;;;;5049211;28;20043;-64
2022/08/21 09:34:31;;;;;;;7.82;2.28;;;26.00;58.80;;;;;;5059853;28;20024;-64
2022/08/21 09:36:57;;;;;;;5.55;2.13;;;25.80;58.60;;;;;;5049661;28;20048;-63
2022/08/21 09:39:30;;;;;;;5.60;2.28;;;25.60;60.10;;;;;;5071475;28;20127;-63
2022/08/21 09:42:07;;;;;;;9.57;2.20;;;26.00;58.50;;;;;;5050144;28;20123;-64
2022/08/21 09:44:39;;;;;;;5.25;2.33;;;26.60;56.40;;;;;;5051421;28;20096;-63
2022/08/21 09:47:06;;;;;;;9.23;2.47;;;26.90;55.50;;;;;;5050973;28;20088;-63
2022/08/21 09:49:39;;;;;;;7.22;2.00;;;26.90;55.40;;;;;;5062292;28;20516;-63
2022/08/21 09:52:17;;;;;;;7.32;2.15;;;26.70;56.00;;;;;;5064860;28;20033;-63
2022/08/21 09:54:45;;;;;;;4.32;1.67;;;26.20;56.70;;;;;;5056899;28;20032;-64
2022/08/21 10:00:19;;;;;;;6.00;1.83;;;25.80;57.60;;;;;;5050951;28;20451;-64
2022/08/21 10:02:45;;;;;;;5.57;1.98;;;25.60;56.80;;;;;;5033913;28;20037;-63
2022/08/21 10:05:22;;;;;;;6.05;1.73;;;26.00;57.00;;;;;;5057947;28;20055;-63
2022/08/21 10:07:48;;;;;;;5.10;1.50;;;26.50;56.50;;;;;;5055379;28;20141;-64
2022/08/21 10:10:21;;;;;;;3.50;1.50;;;27.50;54.50;;;;;;5062118;28;20033;-64
2022/08/21 10:13:22;;;;;;;5.55;1.63;;;28.10;53.20;;;;;;5059361;28;20143;-65
2022/08/21 10:16:11;;;;;;;5.75;1.98;;;28.20;52.10;;;;;;5050086;28;20037;-63
2022/08/21 10:18:43;;;;;;;8.02;1.45;;;28.00;52.50;;;;;;5049812;28;20045;-64
2022/08/21 10:21:49;;;;;;;5.25;2.13;;;27.20;52.80;;;;;;5033390;28;20404;-65
2022/08/21 10:24:23;;;;;;;6.22;1.60;;;26.60;55.00;;;;;;5016255;28;20128;-63
2022/08/21 10:27:47;;;;;;;7.13;1.73;;;26.00;56.30;;;;;;5031984;28;20041;-63
2022/08/21 10:30:19;;;;;;;7.00;1.70;;;25.60;57.30;;;;;;4988943;28;20096;-64
2022/08/21 10:33:18;;;;;;;4.35;1.40;;;25.50;57.90;;;;;;4996282;28;20049;-63
2022/08/21 10:36:03;;;;;;;5.03;1.55;;;25.30;58.50;;;;;;5037922;28;20133;-63
2022/08/21 10:38:55;;;;;;;6.45;1.70;;;25.30;58.40;;;;;;5051160;28;20064;-63
2022/08/21 10:41:39;;;;;;;4.15;1.52;;;25.30;58.30;;;;;;5051519;28;20041;-65
2022/08/21 10:44:14;;;;;;;6.10;1.63;;;25.30;59.60;;;;;;5056694;28;20119;-63
2022/08/21 10:46:59;;;;;;;5.78;1.40;;;25.20;58.80;;;;;;5050873;28;20056;-63
2022/08/21 10:49:53;;;;;;;4.70;1.60;;;25.20;59.50;;;;;;5053217;28;20451;-63
2022/08/21 10:52:25;;;;;;;4.90;1.50;;;25.10;60.30;;;;;;5066404;28;20042;-64
2022/08/21 10:54:57;;;;;;;5.97;1.55;;;25.00;60.20;;;;;;5062486;28;20033;-63
2022/08/21 10:57:45;;;;;;;4.93;1.52;;;25.00;60.80;;;;;;5049339;28;20045;-63
2022/08/21 11:00:53;;;;;;;4.30;1.23;;;25.00;59.10;;;;;;5049157;28;20127;-63
2022/08/21 11:03:32;;;;;;;4.45;1.50;;;24.90;58.60;;;;;;5010973;28;20053;-63
2022/08/21 11:06:30;;;;;;;5.32;1.27;;;24.90;59.70;;;;;;5058335;28;20481;-63
2022/08/21 11:09:08;;;;;;;7.43;1.75;;;24.90;61.80;;;;;;5043576;28;20054;-65
2022/08/21 11:11:45;;;;;;;3.30;1.45;;;25.00;61.40;;;;;;5050330;28;20036;-63
2022/08/21 11:14:33;;;;;;;7.05;1.50;;;24.90;60.90;;;;;;5050076;28;20493;-63
2022/08/21 11:17:08;;;;;;;6.10;1.33;;;25.00;60.80;;;;;;5051020;28;20049;-63
2022/08/21 11:19:47;;;;;;;7.32;1.60;;;25.10;60.80;;;;;;5053630;28;20045;-64
2022/08/21 11:22:21;;;;;;;8.32;1.50;;;25.20;60.90;;;;;;5056722;28;20082;-64
2022/08/21 11:24:57;;;;;;;5.45;1.60;;;25.00;61.00;;;;;;5060344;28;20037;-63
2022/08/21 11:27:28;;;;;;;6.30;1.40;;;24.80;62.00;;;;;;5054973;28;20056;-63
2022/08/21 11:29:57;;;;;;;5.30;1.60;;;25.00;61.80;;;;;;5071221;28;20070;-63
2022/08/21 11:32:56;;;;;;;6.28;1.52;;;25.20;61.20;;;;;;5062577;28;20091;-63
2022/08/21 11:35:42;;;;;;;5.03;1.60;;;25.50;59.20;;;;;;5051724;28;20049;-65
2022/08/21 11:38:24;;;;;;;4.70;1.30;;;25.60;59.00;;;;;;5059424;28;20348;-65
2022/08/21 11:41:27;;;;;;;4.28;1.40;;;25.70;60.00;;;;;;5074717;28;20591;-64
2022/08/21 11:44:19;;;;;;;5.22;1.48;;;25.50;60.20;;;;;;5053131;28;20098;-63
2022/08/21 11:47:08;;;;;;;4.30;1.30;;;25.30;60.20;;;;;;5053502;28;20040;-63
2022/08/21 11:49:42;;;;;;;4.40;1.40;;;25.30;60.60;;;;;;5071146;28;20045;-64
2022/08/21 11:52:40;;;;;;;5.40;1.40;;;25.20;60.50;;;;;;5070244;28;20079;-63
2022/08/21 11:55:15;;;;;;;4.13;1.38;;;25.10;58.80;;;;;;5074512;28;20036;-63
2022/08/21 11:57:55;;;;;;;4.68;1.38;;;25.10;59.30;;;;;;5057923;28;20119;-63
2022/08/21 12:00:38;;;;;;;3.75;1.40;;;25.30;60.10;;;;;;5052584;28;20135;-63
2022/08/21 12:03:12;;;;;;;3.28;1.27;;;25.50;60.20;;;;;;5051056;28;20053;-64
2022/08/21 12:05:51;;;;;;;4.50;1.30;;;25.80;58.60;;;;;;5064486;28;20048;-63
2022/08/21 12:08:32;;;;;;;5.47;1.27;;;25.80;57.60;;;;;;5052138;28;20041;-64
2022/08/21 12:11:15;;;;;;;5.82;1.45;;;26.10;57.10;;;;;;5066293;28;20484;-63
2022/08/21 12:13:52;;;;;;;7.10;1.50;;;26.10;57.20;;;;;;5060252;28;20064;-63
2022/08/21 12:16:29;;;;;;;4.03;1.70;;;26.40;57.80;;;;;;5054194;28;20393;-63
2022/08/21 12:19:20;;;;;;;6.50;1.40;;;26.50;57.90;;;;;;5051701;28;20045;-63
2022/08/21 12:22:06;;;;;;;5.97;1.52;;;26.00;56.50;;;;;;5052073;28;20063;-64
2022/08/21 12:24:35;;;;;;;3.78;1.42;;;25.70;56.60;;;;;;5043518;28;20059;-63
2022/08/21 12:27:21;;;;;;;4.60;1.35;;;25.60;58.30;;;;;;5053362;28;20439;-63
2022/08/21 12:29:49;;;;;;;4.22;1.45;;;25.30;58.30;;;;;;5052220;28;20037;-63
2022/08/21 12:32:14;;;;;;;6.60;1.50;;;25.20;58.40;;;;;;5053971;28;20033;-63
2022/08/21 12:34:52;;;;;;;3.45;1.52;;;25.10;58.90;;;;;;5052037;28;20098;-63
2022/08/21 12:37:37;;;;;;;5.25;1.70;;;25.10;59.40;;;;;;5063490;28;20383;-63
2022/08/21 12:40:09;;;;;;;4.15;1.50;;;25.30;59.40;;;;;;5073712;28;20045;-63
2022/08/21 12:42:41;;;;;;;7.05;1.70;;;25.40;58.90;;;;;;5055660;28;22503;-63
2022/08/21 12:45:29;;;;;;;3.70;1.40;;;25.50;59.40;;;;;;5067073;28;20124;-63
2022/08/21 12:48:30;;;;;;;4.35;1.33;;;25.20;59.50;;;;;;5052792;28;20511;-63
2022/08/21 12:51:06;;;;;;;4.90;1.70;;;25.00;60.30;;;;;;5049885;28;20123;-63
2022/08/21 12:53:54;;;;;;;3.97;1.42;;;24.90;61.30;;;;;;5051671;28;20033;-63
2022/08/21 12:56:23;;;;;;;4.28;1.48;;;24.80;61.20;;;;;;5061085;28;20048;-63
2022/08/21 12:58:55;;;;;;;4.05;1.50;;;24.70;62.10;;;;;;5039675;28;21024;-63
2022/08/21 13:01:51;;;;;;;5.32;1.60;;;24.50;62.40;;;;;;5062478;28;20033;-63
2022/08/21 13:04:21;;;;;;;6.70;1.48;;;24.40;63.00;;;;;;5049757;28;20130;-62
2022/08/21 13:06:51;;;;;;;5.97;1.70;;;24.20;63.20;;;;;;5052855;28;20040;-62
2022/08/21 13:09:23;;;;;;;6.55;1.60;;;24.00;63.40;;;;;;5052152;28;20060;-63
2022/08/21 13:11:49;;;;;;;6.78;1.73;;;24.00;63.80;;;;;;5033866;28;20469;-63
2022/08/21 13:14:30;;;;;;;6.93;1.67;;;23.80;64.20;;;;;;5051593;28;20048;-63
2022/08/21 13:16:56;;;;;;;;;;;23.60;66.70;;;;;;5052227;28;20049;-63
2022/08/21 13:19:22;;;;;;;7.75;2.17;;;23.40;72.20;;;;;;5050458;28;20007;-63
2022/08/21 13:21:47;;;;;;;7.50;1.98;;;22.90;73.10;;;;;;5049651;28;20179;-63
2022/08/21 13:24:25;;;;;;;6.57;2.03;;;22.70;75.70;;;;;;5051328;28;20177;-63
2022/08/21 13:26:52;;;;;;;3.33;1.67;;;22.60;79.00;;;;;;5052026;28;20381;-63
2022/08/21 13:29:21;;;;;;;6.55;2.50;;;22.60;79.30;;;;;;5064381;28;20162;-63
2022/08/21 13:31:52;;;;;;;11.00;2.72;;;22.50;80.40;;;;;;5058694;28;20045;-65
2022/08/21 13:34:20;;;;;;;17.08;3.22;;;21.60;89.20;;;;;;5052336;28;20040;-65
2022/08/21 13:36:46;;;;;;;15.68;3.67;;;20.20;99.40;;;;;;5049800;28;20082;-65
2022/08/21 13:39:16;;;;;;;7.35;2.55;;;20.10;99.90;;;;;;5060512;28;20386;-65
2022/08/21 13:41:45;;;;;;;8.20;3.17;;;19.60;99.90;;;;;;5050523;28;20041;-64
2022/08/21 13:44:26;;;;;;;13.10;3.25;;;19.30;99.90;;;;;;5052456;28;20052;-64
2022/08/21 13:46:53;;;;;;;7.57;3.28;;;19.40;99.90;;;;;;5061799;28;20467;-64
2022/08/21 13:49:26;;;;;;;8.35;3.10;;;19.20;99.90;;;;;;5052456;28;20037;-64
2022/08/21 13:51:52;;;;;;;10.20;3.40;;;19.30;99.90;;;;;;5055222;28;20835;-64